Main page
METAR-TAF:

METAR-TAF

Airports :

Tehran, Iran

Tehran Imam Khomeini International Airport

latitude: 35-24-58N, longitude: 51-09-08E, elevation: 1007 m

Current weather observation

The report was made 14 minutes ago, at 23:00 UTC
Wind 7 kt from the West
Temperature 26°C
Humidity 21%
Pressure 1011 hPa
Visibility 10 km or more
no clouds below 1500 m and no cumulonimbus

METAR: OIIE 232300Z 28007KT CAVOK 26/02 Q1011

Time: 03:44 (23:14 UTC)

Forecast

The report was made 5 hours and 44 minutes ago, at 17:30 UTC
Forecast valid from 23 at 18 UTC to 24 at 24 UTC
Wind 10 kt from the West/Southwest
Visibility 10 km or more
no clouds below 1500 m and no cumulonimbus

TAF: OIIE 231730Z 2318/2424 24005MPS CAVOK

Weather observations and forecasts of more than 4000 airports (METAR and TAF reports).

The available stations are represented by yellow and red dots on the map.

Hover mouse over dot to see the name of the station.

Then click to see weather observations and forecasts.

To change the map : click on the green buttons with a black cross to zoom in, on the green button with a dash to zoom out, or on the green arrows for adjacent maps.


METAR-TAF: